createdAt,value
2018-11-01T00:01:35.983Z,8.17
2018-11-01T00:04:09.359Z,6.30
2018-11-01T00:06:43.127Z,10.93
2018-11-01T00:09:19.888Z,4.67
2018-11-01T00:11:53.896Z,4.80
2018-11-01T00:14:29.353Z,6.90
2018-11-01T00:17:05.120Z,5.67
2018-11-01T00:19:43.349Z,4.70
2018-11-01T00:22:18.355Z,6.03
2018-11-01T00:24:54.771Z,5.53
2018-11-01T00:27:31.186Z,7.30
2018-11-01T00:30:07.139Z,12.80
2018-11-01T00:32:45.449Z,6.33
2018-11-01T00:35:22.177Z,6.37
2018-11-01T00:37:57.367Z,3.87
2018-11-01T00:40:37.363Z,5.63
2018-11-01T00:43:13.642Z,9.97
2018-11-01T00:45:51.369Z,5.13
2018-11-01T00:48:25.372Z,6.20
2018-11-01T00:51:02.348Z,10.23
2018-11-01T00:53:38.856Z,10.00
2018-11-01T00:56:14.366Z,7.70
2018-11-01T00:58:50.367Z,7.43
2018-11-01T01:01:28.401Z,9.67
2018-11-01T01:03:57.455Z,9.80
2018-11-01T01:06:33.375Z,8.53
2018-11-01T01:09:13.358Z,9.20
2018-11-01T01:11:48.292Z,7.57
2018-11-01T01:14:24.349Z,5.13
2018-11-01T01:17:04.725Z,8.37
2018-11-01T01:19:40.863Z,12.33
2018-11-01T01:22:13.872Z,5.43
2018-11-01T01:24:49.025Z,10.27
2018-11-01T01:27:25.355Z,5.93
2018-11-01T01:30:03.317Z,7.43
2018-11-01T01:32:42.357Z,9.97
2018-11-01T01:35:16.361Z,10.90
2018-11-01T01:37:55.364Z,12.90
2018-11-01T01:40:31.636Z,9.60
2018-11-01T01:43:08.580Z,8.73
2018-11-01T01:45:47.491Z,10.70
2018-11-01T01:48:24.314Z,9.33
2018-11-01T01:51:00.693Z,10.17
2018-11-01T01:53:38.335Z,8.07
2018-11-01T01:56:17.329Z,6.00
2018-11-01T01:58:55.890Z,9.13
2018-11-01T02:01:34.363Z,11.90
2018-11-01T02:04:03.986Z,11.60
2018-11-01T02:06:39.353Z,10.67
2018-11-01T02:09:17.201Z,7.20
2018-11-01T02:11:54.158Z,11.23
2018-11-01T02:14:27.343Z,7.93
2018-11-01T02:17:02.818Z,12.70
2018-11-01T02:19:41.353Z,5.63
2018-11-01T02:22:17.087Z,8.20
2018-11-01T02:24:51.350Z,6.47
2018-11-01T02:27:28.843Z,10.60
2018-11-01T02:30:04.360Z,7.17
2018-11-01T02:32:41.243Z,8.10
2018-11-01T02:35:18.545Z,10.63
2018-11-01T02:37:54.905Z,14.17
2018-11-01T02:40:33.337Z,10.03
2018-11-01T02:43:09.192Z,12.63
2018-11-01T02:45:46.356Z,9.37
2018-11-01T02:48:21.165Z,14.30
2018-11-01T02:50:55.348Z,10.57
2018-11-01T02:53:32.204Z,8.40
2018-11-01T02:56:07.228Z,14.70
2018-11-01T02:58:43.336Z,8.80
2018-11-01T03:01:21.333Z,10.43
2018-11-01T03:03:50.618Z,9.57
2018-11-01T03:06:25.000Z,12.67
2018-11-01T03:09:01.349Z,14.90
2018-11-01T03:11:38.253Z,11.03
2018-11-01T03:14:14.894Z,12.13
2018-11-01T03:16:51.073Z,11.00
2018-11-01T03:19:25.289Z,8.53
2018-11-01T03:22:01.261Z,6.23
2018-11-01T03:25:41.214Z,11.13
2018-11-01T03:28:17.374Z,11.73
2018-11-01T03:30:52.466Z,7.90
2018-11-01T03:33:30.091Z,6.70
2018-11-01T03:36:05.662Z,11.30
2018-11-01T03:38:41.405Z,12.33
2018-11-01T03:41:19.601Z,8.50
2018-11-01T03:43:53.331Z,6.27
2018-11-01T03:46:30.847Z,10.93
2018-11-01T03:49:04.999Z,10.07
2018-11-01T03:51:40.619Z,17.10
2018-11-01T03:54:13.868Z,7.60
2018-11-01T03:56:49.466Z,10.47
2018-11-01T03:59:25.424Z,11.67
2018-11-01T04:02:00.112Z,9.20
2018-11-01T04:04:35.364Z,6.97
2018-11-01T04:07:10.073Z,7.17
2018-11-01T04:09:45.851Z,6.83
2018-11-01T04:12:20.737Z,10.97
2018-11-01T04:14:56.028Z,12.77
2018-11-01T04:17:31.107Z,11.87
2018-11-01T04:20:05.446Z,8.53
2018-11-01T04:22:40.350Z,14.40
2018-11-01T04:25:16.335Z,11.93
2018-11-01T04:27:50.769Z,12.67
2018-11-01T04:30:26.353Z,12.27
2018-11-01T04:33:00.292Z,7.83
2018-11-01T04:35:32.360Z,11.00
2018-11-01T04:38:07.288Z,13.63
2018-11-01T04:40:43.761Z,11.10
2018-11-01T04:43:18.075Z,10.07
2018-11-01T04:45:58.353Z,10.00
2018-11-01T04:48:34.678Z,10.97
2018-11-01T04:51:11.458Z,11.70
2018-11-01T04:53:46.195Z,14.53
2018-11-01T04:56:19.331Z,12.00
2018-11-01T04:58:57.343Z,11.40
2018-11-01T05:01:32.745Z,15.40
2018-11-01T05:04:07.349Z,14.07
2018-11-01T05:06:42.842Z,10.00
2018-11-01T05:09:20.351Z,10.83
2018-11-01T05:11:57.348Z,16.40
2018-11-01T05:14:31.908Z,7.47
2018-11-01T05:17:05.458Z,13.10
2018-11-01T05:19:38.408Z,9.63
2018-11-01T05:22:15.940Z,12.87
2018-11-01T05:24:50.333Z,8.23
2018-11-01T05:27:24.340Z,14.27
2018-11-01T05:29:58.348Z,6.33
2018-11-01T05:32:33.333Z,7.20
2018-11-01T05:35:11.332Z,15.30
2018-11-01T05:37:45.370Z,11.93
2018-11-01T05:40:20.311Z,7.67
2018-11-01T05:42:55.359Z,8.13
2018-11-01T05:45:31.366Z,7.80
2018-11-01T05:48:07.254Z,14.27
2018-11-01T05:50:40.401Z,14.77
2018-11-01T05:53:15.429Z,13.03
2018-11-01T05:55:50.529Z,11.63
2018-11-01T05:58:23.361Z,9.40
2018-11-01T06:00:59.345Z,10.33
2018-11-01T06:03:29.796Z,11.40
2018-11-01T06:06:03.756Z,8.70
2018-11-01T06:08:40.361Z,11.47
2018-11-01T06:11:15.332Z,11.90
2018-11-01T06:13:50.035Z,14.80
2018-11-01T06:16:27.126Z,12.13
2018-11-01T06:19:03.349Z,17.03
2018-11-01T06:21:37.147Z,10.43
2018-11-01T06:24:10.908Z,8.23
2018-11-01T06:26:45.276Z,10.83
2018-11-01T06:29:20.351Z,12.10
2018-11-01T06:31:56.226Z,8.30
2018-11-01T06:34:36.913Z,15.10
2018-11-01T06:37:13.357Z,10.00
2018-11-01T06:39:49.217Z,10.63
2018-11-01T06:42:24.345Z,10.47
2018-11-01T06:44:59.236Z,10.17
2018-11-01T06:47:37.331Z,17.10
2018-11-01T06:50:10.055Z,13.73
2018-11-01T06:52:46.379Z,14.63
2018-11-01T06:55:21.458Z,11.60
2018-11-01T06:57:58.344Z,15.10
2018-11-01T07:00:35.345Z,11.77
2018-11-01T07:03:04.838Z,10.13
2018-11-01T07:05:40.770Z,6.40
2018-11-01T07:08:16.583Z,13.03
2018-11-01T07:10:51.043Z,15.93
2018-11-01T07:13:28.758Z,18.13
2018-11-01T07:16:03.595Z,9.00
2018-11-01T07:18:40.358Z,11.73
2018-11-01T07:21:10.899Z,20.97
2018-11-01T07:23:45.818Z,15.10
2018-11-01T07:26:20.186Z,8.70
2018-11-01T07:28:56.346Z,12.93
2018-11-01T07:31:38.097Z,7.83
2018-11-01T07:34:14.554Z,12.53
2018-11-01T07:36:48.031Z,9.60
2018-11-01T07:39:24.356Z,10.17
2018-11-01T07:42:00.356Z,14.27
2018-11-01T07:44:35.335Z,11.20
2018-11-01T07:47:12.493Z,12.43
2018-11-01T07:49:47.287Z,10.37
2018-11-01T07:52:21.353Z,15.23
2018-11-01T07:54:54.452Z,8.57
2018-11-01T07:57:30.900Z,11.23
2018-11-01T08:00:05.319Z,17.80
2018-11-01T08:02:38.464Z,12.37
2018-11-01T08:05:13.298Z,10.97
2018-11-01T08:07:48.630Z,11.57
2018-11-01T08:10:22.490Z,7.77
2018-11-01T08:12:58.368Z,11.30
2018-11-01T08:15:35.329Z,9.67
2018-11-01T08:18:11.112Z,10.27
2018-11-01T08:20:48.260Z,15.20
2018-11-01T08:23:24.332Z,8.50
2018-11-01T08:26:00.317Z,9.73
2018-11-01T08:28:37.616Z,15.23
2018-11-01T08:31:11.513Z,13.07
2018-11-01T08:33:47.955Z,12.50
2018-11-01T08:36:23.336Z,7.67
2018-11-01T08:38:59.405Z,13.40
2018-11-01T08:41:35.030Z,9.33
2018-11-01T08:44:10.332Z,8.17
2018-11-01T08:46:48.325Z,11.97
2018-11-01T08:49:25.376Z,11.60
2018-11-01T08:52:02.367Z,11.23
2018-11-01T08:54:39.523Z,10.30
2018-11-01T08:57:14.341Z,10.47
2018-11-01T08:59:48.963Z,12.43
2018-11-01T09:02:25.345Z,9.90
2018-11-01T09:05:03.302Z,7.43
2018-11-01T09:07:40.548Z,10.00
2018-11-01T09:10:20.366Z,12.30
2018-11-01T09:12:55.775Z,14.23
2018-11-01T09:15:32.228Z,7.60
2018-11-01T09:18:07.944Z,12.17
2018-11-01T09:20:44.326Z,6.83
2018-11-01T09:23:20.325Z,15.57
2018-11-01T09:25:57.327Z,11.83
2018-11-01T09:28:33.230Z,10.90
2018-11-01T09:31:09.567Z,12.33
2018-11-01T09:33:45.348Z,15.10
2018-11-01T09:36:24.326Z,15.00
2018-11-01T09:39:02.325Z,9.73
2018-11-01T09:41:36.889Z,10.57
2018-11-01T09:44:10.209Z,14.83
2018-11-01T09:46:44.748Z,6.37
2018-11-01T09:49:20.386Z,11.30
2018-11-01T09:51:57.322Z,12.50
2018-11-01T09:54:32.340Z,22.63
2018-11-01T09:57:09.127Z,11.73
2018-11-01T09:59:45.592Z,11.73
2018-11-01T10:02:22.507Z,14.50
2018-11-01T10:04:52.107Z,13.00
2018-11-01T10:07:29.058Z,8.70
2018-11-01T10:10:05.338Z,8.70
2018-11-01T10:12:42.194Z,10.00
2018-11-01T10:15:16.543Z,8.90
2018-11-01T10:17:51.788Z,12.50
2018-11-01T10:20:26.344Z,11.60
2018-11-01T10:23:04.399Z,12.80
2018-11-01T10:25:38.330Z,11.90
2018-11-01T10:28:15.331Z,9.70
2018-11-01T10:30:50.900Z,14.40
2018-11-01T10:33:25.395Z,8.73
2018-11-01T10:36:03.821Z,9.30
2018-11-01T10:38:42.863Z,11.53
2018-11-01T10:41:19.409Z,10.83
2018-11-01T10:43:53.344Z,7.40
2018-11-01T10:46:27.953Z,8.37
2018-11-01T10:49:04.336Z,15.50
2018-11-01T10:51:42.341Z,15.53
2018-11-01T10:54:16.495Z,10.30
2018-11-01T10:56:53.932Z,11.20
2018-11-01T10:59:30.323Z,14.03
2018-11-01T11:02:11.331Z,12.33
2018-11-01T11:04:48.608Z,13.50
2018-11-01T11:07:26.344Z,9.07
2018-11-01T11:10:00.567Z,11.17
2018-11-01T11:12:35.336Z,13.20
2018-11-01T11:15:10.173Z,10.10
2018-11-01T11:17:45.959Z,12.93
2018-11-01T11:20:20.452Z,9.03
2018-11-01T11:22:57.197Z,8.40
2018-11-01T11:25:31.009Z,15.17
2018-11-01T11:28:06.152Z,13.80
2018-11-01T11:30:40.020Z,9.23
2018-11-01T11:33:15.543Z,8.77
2018-11-01T11:35:51.339Z,8.90
2018-11-01T11:38:29.325Z,9.10
2018-11-01T11:41:06.324Z,11.40
2018-11-01T11:43:43.309Z,9.43
2018-11-01T11:46:20.336Z,7.20
2018-11-01T11:48:56.883Z,10.08
2018-11-01T11:51:30.158Z,12.90
2018-11-01T11:54:07.349Z,8.57
2018-11-01T11:56:44.327Z,10.83
2018-11-01T11:59:21.941Z,9.70
2018-11-01T12:01:59.236Z,10.63
2018-11-01T12:04:34.391Z,7.43
2018-11-01T12:07:10.312Z,12.50
2018-11-01T12:09:47.310Z,11.87
2018-11-01T12:12:23.503Z,9.77
2018-11-01T12:15:00.733Z,9.03
2018-11-01T12:17:35.260Z,7.20
2018-11-01T12:20:12.833Z,16.47
2018-11-01T12:22:50.314Z,10.30
2018-11-01T12:25:26.312Z,13.90
2018-11-01T12:28:02.619Z,11.63
2018-11-01T12:30:37.334Z,11.17
2018-11-01T12:33:14.362Z,11.83
2018-11-01T12:35:51.353Z,11.77
2018-11-01T12:38:28.338Z,12.27
2018-11-01T12:41:07.327Z,11.47
2018-11-01T12:43:42.331Z,13.10
2018-11-01T12:46:17.317Z,9.33
2018-11-01T12:48:53.333Z,12.63
2018-11-01T12:51:30.324Z,8.30
2018-11-01T12:54:09.389Z,14.63
2018-11-01T12:56:46.549Z,9.37
2018-11-01T12:59:22.414Z,12.63
2018-11-01T13:01:59.329Z,10.13
2018-11-01T13:04:36.326Z,8.20
2018-11-01T13:07:11.783Z,11.67
2018-11-01T13:09:45.217Z,9.07
2018-11-01T13:12:23.323Z,10.23
2018-11-01T13:15:00.683Z,13.27
2018-11-01T13:17:31.893Z,13.43
2018-11-01T13:20:08.324Z,10.07
2018-11-01T13:22:47.320Z,11.60
2018-11-01T13:25:25.007Z,11.27
2018-11-01T13:28:02.320Z,11.60
2018-11-01T13:30:39.316Z,8.50
2018-11-01T13:33:16.320Z,8.03
2018-11-01T13:35:51.430Z,7.93
2018-11-01T13:38:29.052Z,11.83
2018-11-01T13:41:06.338Z,8.10
2018-11-01T13:43:40.061Z,10.87
2018-11-01T13:46:15.570Z,12.30
2018-11-01T13:48:50.310Z,11.70
2018-11-01T13:51:29.104Z,13.50
2018-11-01T13:54:04.329Z,10.23
2018-11-01T13:56:41.475Z,13.43
2018-11-01T13:59:15.537Z,13.70
2018-11-01T14:01:51.332Z,10.40
2018-11-01T14:04:26.883Z,10.70
2018-11-01T14:07:02.976Z,14.10
2018-11-01T14:09:36.311Z,11.27
2018-11-01T14:12:15.334Z,11.07
2018-11-01T14:14:52.623Z,16.33
2018-11-01T14:17:32.329Z,12.70
2018-11-01T14:20:06.333Z,13.07
2018-11-01T14:22:45.328Z,11.63
2018-11-01T14:25:20.330Z,10.53
2018-11-01T14:27:56.568Z,10.23
2018-11-01T14:30:33.245Z,12.20
2018-11-01T14:33:08.317Z,19.97
2018-11-01T14:35:45.333Z,14.33
2018-11-01T14:38:21.825Z,16.70
2018-11-01T14:40:57.244Z,19.27
2018-11-01T14:43:33.624Z,17.37
2018-11-01T14:46:08.307Z,19.03
2018-11-01T14:48:39.588Z,14.83
2018-11-01T14:51:15.381Z,17.83
2018-11-01T14:53:53.986Z,17.77
2018-11-01T14:56:31.779Z,17.73
2018-11-01T14:59:06.718Z,17.20
2018-11-01T15:01:38.844Z,18.93
2018-11-01T15:04:08.162Z,16.87
2018-11-01T15:06:45.027Z,15.17
2018-11-01T15:09:23.318Z,16.93
2018-11-01T15:11:59.324Z,17.07
2018-11-01T15:14:34.340Z,17.87
2018-11-01T15:17:11.315Z,15.80
2018-11-01T15:19:49.001Z,18.43
2018-11-01T15:22:24.360Z,21.70
2018-11-01T15:25:00.603Z,23.53
2018-11-01T15:27:36.293Z,26.43
2018-11-01T15:30:18.117Z,20.30
2018-11-01T15:32:57.295Z,22.90
2018-11-01T15:35:32.296Z,22.67
2018-11-01T15:38:07.298Z,18.30
2018-11-01T15:40:44.299Z,26.33
2018-11-01T15:43:18.304Z,25.77
2018-11-01T15:45:54.318Z,27.63
2018-11-01T15:48:32.497Z,25.37
2018-11-01T15:51:04.269Z,22.47
2018-11-01T15:53:43.296Z,21.50
2018-11-01T15:56:19.763Z,25.60
2018-11-01T15:58:55.293Z,21.80
2018-11-01T16:01:29.311Z,26.80
2018-11-01T16:04:02.313Z,29.33
2018-11-01T16:06:40.885Z,25.57
2018-11-01T16:09:15.374Z,32.17
2018-11-01T16:11:50.304Z,30.63
2018-11-01T16:14:26.313Z,24.93
2018-11-01T16:17:02.301Z,24.47
2018-11-01T16:19:38.423Z,25.23
2018-11-01T16:22:13.210Z,24.70
2018-11-01T16:24:51.309Z,20.17
2018-11-01T16:27:30.450Z,30.47
2018-11-01T16:30:07.326Z,23.57
2018-11-01T16:32:43.059Z,24.13
2018-11-01T16:35:16.885Z,21.47
2018-11-01T16:37:52.299Z,22.67
2018-11-01T16:40:27.420Z,28.57
2018-11-01T16:43:02.705Z,23.33
2018-11-01T16:45:34.297Z,21.47
2018-11-01T16:48:08.238Z,26.00
2018-11-01T16:50:40.815Z,26.07
2018-11-01T16:53:14.295Z,26.13
2018-11-01T16:55:44.327Z,21.50
2018-11-01T16:58:17.329Z,21.77
2018-11-01T17:00:49.494Z,21.13
2018-11-01T17:03:21.090Z,24.47
2018-11-01T17:05:52.317Z,21.43
2018-11-01T17:08:26.342Z,24.20
2018-11-01T17:10:59.407Z,22.43
2018-11-01T17:13:35.316Z,19.13
2018-11-01T17:16:07.228Z,22.23
2018-11-01T17:18:38.978Z,21.80
2018-11-01T17:21:08.868Z,20.13
2018-11-01T17:23:40.303Z,19.80
2018-11-01T17:26:13.284Z,18.93
2018-11-01T17:28:44.019Z,19.87
2018-11-01T17:31:16.274Z,19.97
2018-11-01T17:33:49.366Z,16.93
2018-11-01T17:36:20.617Z,19.17
2018-11-01T17:38:51.563Z,18.23
2018-11-01T17:41:25.388Z,18.20
2018-11-01T17:43:56.903Z,16.43
2018-11-01T17:46:26.891Z,24.30
2018-11-01T17:48:59.414Z,16.93
2018-11-01T17:51:30.007Z,16.40
2018-11-01T17:54:03.333Z,13.60
2018-11-01T17:56:35.819Z,15.90
2018-11-01T17:59:08.093Z,13.50
2018-11-01T18:01:41.218Z,15.00
2018-11-01T18:04:12.449Z,14.70
2018-11-01T18:06:44.556Z,12.23
2018-11-01T18:09:17.820Z,11.70
2018-11-01T18:11:50.279Z,12.67
2018-11-01T18:14:23.981Z,12.77
2018-11-01T18:16:59.322Z,10.67
2018-11-01T18:19:34.722Z,12.07
2018-11-01T18:22:10.809Z,11.10
2018-11-01T18:24:45.311Z,11.47
2018-11-01T18:27:21.317Z,11.27
2018-11-01T18:29:55.343Z,12.03
2018-11-01T18:32:29.096Z,12.37
2018-11-01T18:35:04.946Z,12.57
2018-11-01T18:37:37.922Z,10.27
2018-11-01T18:40:11.241Z,10.67
2018-11-01T18:42:43.030Z,13.27
2018-11-01T18:45:15.147Z,14.87
2018-11-01T18:47:47.292Z,14.03
2018-11-01T18:50:18.302Z,10.60
2018-11-01T18:52:50.037Z,14.73
2018-11-01T18:55:24.786Z,16.00
2018-11-01T18:57:57.434Z,15.10
2018-11-01T19:00:31.276Z,16.30
2018-11-01T19:03:00.574Z,13.20
2018-11-01T19:05:35.132Z,16.27
2018-11-01T19:08:08.073Z,14.80
2018-11-01T19:10:42.315Z,19.40
2018-11-01T19:13:15.268Z,18.60
2018-11-01T19:15:48.788Z,18.17
2018-11-01T19:18:23.424Z,20.00
2018-11-01T19:20:56.881Z,17.00
2018-11-01T19:23:30.658Z,17.03
2018-11-01T19:26:04.974Z,20.30
2018-11-01T19:28:37.627Z,25.33
2018-11-01T19:31:10.975Z,22.30
2018-11-01T19:33:45.635Z,27.57
2018-11-01T19:36:19.461Z,30.83
2018-11-01T19:38:54.767Z,30.83
2018-11-01T19:41:29.287Z,38.00
2018-11-01T19:44:05.305Z,39.70
2018-11-01T19:46:41.291Z,44.67
2018-11-01T19:49:14.178Z,49.93
2018-11-01T19:51:49.221Z,51.53
2018-11-01T19:54:24.601Z,54.73
2018-11-01T19:56:59.973Z,54.20
2018-11-01T19:59:34.458Z,56.37
2018-11-01T20:02:09.381Z,52.87
2018-11-01T20:04:44.311Z,58.47
2018-11-01T20:07:16.693Z,63.77
2018-11-01T20:09:49.031Z,62.20
2018-11-01T20:12:24.251Z,63.80
2018-11-01T20:14:55.914Z,63.30
2018-11-01T20:17:31.287Z,65.67
2018-11-01T20:20:03.637Z,72.67
2018-11-01T20:22:36.285Z,69.40
2018-11-01T20:25:10.303Z,69.83
2018-11-01T20:27:45.026Z,63.33
2018-11-01T20:30:17.529Z,64.50
2018-11-01T20:32:48.761Z,67.70
2018-11-01T20:35:19.313Z,64.47
2018-11-01T20:37:53.389Z,53.13
2018-11-01T20:40:27.890Z,59.77
2018-11-01T20:43:03.310Z,58.80
2018-11-01T20:45:39.654Z,54.33
2018-11-01T20:48:13.782Z,51.33
2018-11-01T20:50:50.269Z,52.63
2018-11-01T20:53:23.528Z,47.23
2018-11-01T20:55:57.301Z,54.27
2018-11-01T20:58:30.806Z,55.20
2018-11-01T21:01:03.415Z,54.83
2018-11-01T21:03:34.627Z,55.87
2018-11-01T21:06:06.149Z,64.63
2018-11-01T21:08:38.351Z,51.03
2018-11-01T21:11:11.276Z,57.40
2018-11-01T21:13:43.536Z,65.30
2018-11-01T21:16:15.958Z,60.30
2018-11-01T21:18:47.463Z,68.50
2018-11-01T21:21:21.871Z,61.17
2018-11-01T21:23:56.930Z,60.07
2018-11-01T21:26:30.453Z,59.93
2018-11-01T21:29:04.944Z,60.57
2018-11-01T21:31:41.390Z,54.20
2018-11-01T21:34:17.450Z,60.17
2018-11-01T21:36:51.820Z,56.40
2018-11-01T21:39:25.272Z,63.23
2018-11-01T21:41:59.044Z,58.63
2018-11-01T21:44:33.309Z,57.07
2018-11-01T21:47:06.283Z,62.70
2018-11-01T21:49:39.621Z,59.50
2018-11-01T21:52:11.544Z,58.47
2018-11-01T21:54:45.817Z,58.60
2018-11-01T21:57:21.022Z,61.13
2018-11-01T21:59:53.620Z,58.80
2018-11-01T22:02:24.960Z,65.03
2018-11-01T22:05:02.455Z,58.10
2018-11-01T22:07:41.147Z,57.30
2018-11-01T22:10:17.691Z,61.73
2018-11-01T22:12:52.968Z,61.37
2018-11-01T22:15:33.019Z,67.20
2018-11-01T22:18:09.526Z,65.07
2018-11-01T22:20:48.476Z,63.97
2018-11-01T22:23:28.792Z,57.93
2018-11-01T22:26:09.836Z,62.53
2018-11-01T22:28:47.988Z,60.03
2018-11-01T22:31:27.637Z,65.53
2018-11-01T22:34:09.631Z,60.03
2018-11-01T22:36:52.368Z,64.97
2018-11-01T22:39:35.084Z,63.87
2018-11-01T22:42:14.828Z,64.63
2018-11-01T22:44:55.817Z,60.93
2018-11-01T22:47:36.230Z,63.67
2018-11-01T22:50:17.021Z,64.20
2018-11-01T22:52:59.313Z,63.17
2018-11-01T22:55:39.503Z,65.00
2018-11-01T22:58:20.448Z,62.10
2018-11-01T23:01:04.507Z,63.73
2018-11-01T23:03:40.094Z,65.57
2018-11-01T23:06:21.085Z,60.10
2018-11-01T23:09:03.480Z,57.67
2018-11-01T23:11:46.698Z,58.67
2018-11-01T23:14:27.636Z,63.07
2018-11-01T23:17:09.429Z,61.70
2018-11-01T23:19:50.092Z,63.47
2018-11-01T23:22:34.857Z,65.80
2018-11-01T23:25:11.746Z,61.27
2018-11-01T23:27:54.572Z,73.77
2018-11-01T23:30:36.458Z,65.53
2018-11-01T23:33:16.420Z,60.47
2018-11-01T23:35:59.787Z,59.93
2018-11-01T23:38:42.656Z,69.00
2018-11-01T23:41:28.920Z,68.57
2018-11-01T23:44:14.511Z,67.70
2018-11-01T23:46:57.946Z,69.00
2018-11-01T23:51:47.072Z,70.53
2018-11-01T23:54:27.646Z,66.90
2018-11-01T23:57:10.811Z,71.07
2018-11-01T23:59:53.975Z,73.67
